sensor_id;sensor_type;location;lat;lon;timestamp;pressure;altitude;pressure_sealevel;temperature;humidity
38616;BME280;24370;51.986;4.666;2024-03-23T00:55:49;101154.25;;;20.00;36.79
38616;BME280;24370;51.986;4.666;2024-03-23T00:58:14;101150.97;;;19.95;36.08
38616;BME280;24370;51.986;4.666;2024-03-23T01:00:40;101141.66;;;19.64;36.29
38616;BME280;24370;51.986;4.666;2024-03-23T01:03:05;101142.22;;;19.93;35.70
38616;BME280;24370;51.986;4.666;2024-03-23T01:05:30;101131.88;;;19.87;35.87
38616;BME280;24370;51.986;4.666;2024-03-23T01:07:56;101134.84;;;19.58;36.40
38616;BME280;24370;51.986;4.666;2024-03-23T01:10:21;101136.44;;;19.83;35.61
38616;BME280;24370;51.986;4.666;2024-03-23T01:12:47;101133.84;;;19.40;36.42
38616;BME280;24370;51.986;4.666;2024-03-23T01:15:12;101128.69;;;18.93;37.42
38616;BME280;24370;51.986;4.666;2024-03-23T01:17:37;101126.09;;;19.13;36.79
38616;BME280;24370;51.986;4.666;2024-03-23T01:20:03;101132.31;;;18.90;36.84
38616;BME280;24370;51.986;4.666;2024-03-23T01:22:29;101135.53;;;17.80;39.38
38616;BME280;24370;51.986;4.666;2024-03-23T01:24:54;101135.38;;;17.85;39.03
38616;BME280;24370;51.986;4.666;2024-03-23T01:27:20;101136.75;;;18.20;38.68
38616;BME280;24370;51.986;4.666;2024-03-23T01:29:45;101135.09;;;17.67;39.16
38616;BME280;24370;51.986;4.666;2024-03-23T01:32:11;101130.59;;;19.11;37.37
38616;BME280;24370;51.986;4.666;2024-03-23T01:34:36;101126.59;;;19.01;37.22
38616;BME280;24370;51.986;4.666;2024-03-23T01:37:02;101121.44;;;18.98;36.85
38616;BME280;24370;51.986;4.666;2024-03-23T01:39:27;101122.31;;;19.62;36.21
38616;BME280;24370;51.986;4.666;2024-03-23T01:41:53;101118.44;;;19.28;36.65
38616;BME280;24370;51.986;4.666;2024-03-23T01:44:18;101127.94;;;18.67;37.47
38616;BME280;24370;51.986;4.666;2024-03-23T01:46:44;101117.09;;;19.18;36.93
38616;BME280;24370;51.986;4.666;2024-03-23T01:49:10;101115.06;;;19.45;36.00
38616;BME280;24370;51.986;4.666;2024-03-23T01:51:36;101114.41;;;19.60;36.17
38616;BME280;24370;51.986;4.666;2024-03-23T01:54:03;101116.72;;;19.68;35.59
38616;BME280;24370;51.986;4.666;2024-03-23T01:56:29;101114.22;;;19.44;36.28
38616;BME280;24370;51.986;4.666;2024-03-23T01:58:58;101112.44;;;19.02;36.79
38616;BME280;24370;51.986;4.666;2024-03-23T02:01:23;101115.00;;;18.81;37.12
38616;BME280;24370;51.986;4.666;2024-03-23T02:03:48;101115.75;;;18.63;37.05
38616;BME280;24370;51.986;4.666;2024-03-23T02:06:14;101109.91;;;19.42;36.09
38616;BME280;24370;51.986;4.666;2024-03-23T02:08:39;101100.03;;;19.25;36.50
38616;BME280;24370;51.986;4.666;2024-03-23T02:11:05;101101.22;;;19.38;35.97
38616;BME280;24370;51.986;4.666;2024-03-23T02:13:30;101103.44;;;19.06;37.12
38616;BME280;24370;51.986;4.666;2024-03-23T02:15:57;101101.34;;;18.70;36.66
38616;BME280;24370;51.986;4.666;2024-03-23T02:18:22;101096.53;;;19.02;36.27
38616;BME280;24370;51.986;4.666;2024-03-23T02:20:47;101108.16;;;18.54;36.77
38616;BME280;24370;51.986;4.666;2024-03-23T02:23:16;101097.91;;;18.44;37.00
38616;BME280;24370;51.986;4.666;2024-03-23T02:25:43;101088.53;;;19.04;35.78
38616;BME280;24370;51.986;4.666;2024-03-23T02:28:09;101091.03;;;18.17;36.65
38616;BME280;24370;51.986;4.666;2024-03-23T02:30:34;101086.88;;;19.01;35.29
38616;BME280;24370;51.986;4.666;2024-03-23T02:33:00;101088.16;;;19.13;35.48
38616;BME280;24370;51.986;4.666;2024-03-23T02:35:25;101091.84;;;17.95;36.78
38616;BME280;24370;51.986;4.666;2024-03-23T02:37:50;101091.19;;;18.12;36.24
38616;BME280;24370;51.986;4.666;2024-03-23T02:40:17;101081.88;;;18.71;35.75
38616;BME280;24370;51.986;4.666;2024-03-23T02:42:42;101093.47;;;18.45;36.42
38616;BME280;24370;51.986;4.666;2024-03-23T02:45:08;101090.00;;;17.72;37.59
38616;BME280;24370;51.986;4.666;2024-03-23T02:47:33;101098.84;;;17.96;37.41
38616;BME280;24370;51.986;4.666;2024-03-23T02:49:59;101083.97;;;18.63;35.79
38616;BME280;24370;51.986;4.666;2024-03-23T02:52:24;101081.75;;;18.74;35.63
38616;BME280;24370;51.986;4.666;2024-03-23T02:54:49;101075.84;;;18.90;35.68
38616;BME280;24370;51.986;4.666;2024-03-23T02:57:15;101076.31;;;18.77;35.64
38616;BME280;24370;51.986;4.666;2024-03-23T02:59:41;101076.72;;;18.90;36.53
38616;BME280;24370;51.986;4.666;2024-03-23T03:02:06;101073.25;;;18.66;35.61
38616;BME280;24370;51.986;4.666;2024-03-23T03:04:32;101067.13;;;18.88;35.59
38616;BME280;24370;51.986;4.666;2024-03-23T03:06:57;101077.91;;;18.37;35.99
38616;BME280;24370;51.986;4.666;2024-03-23T03:09:23;101080.56;;;18.37;36.50
38616;BME280;24370;51.986;4.666;2024-03-23T03:11:48;101063.50;;;18.44;36.01
38616;BME280;24370;51.986;4.666;2024-03-23T03:14:13;101073.38;;;18.17;36.15
38616;BME280;24370;51.986;4.666;2024-03-23T03:16:39;101074.44;;;17.88;36.47
38616;BME280;24370;51.986;4.666;2024-03-23T03:19:04;101065.44;;;17.93;38.13
38616;BME280;24370;51.986;4.666;2024-03-23T03:21:31;101077.78;;;17.68;36.61
38616;BME280;24370;51.986;4.666;2024-03-23T03:23:57;101080.69;;;18.10;37.37
38616;BME280;24370;51.986;4.666;2024-03-23T03:26:23;101077.22;;;17.85;36.89
38616;BME280;24370;51.986;4.666;2024-03-23T03:28:48;101075.22;;;17.91;36.59
38616;BME280;24370;51.986;4.666;2024-03-23T03:31:17;101078.50;;;18.22;35.87
38616;BME280;24370;51.986;4.666;2024-03-23T03:33:44;101071.38;;;17.50;36.78
38616;BME280;24370;51.986;4.666;2024-03-23T03:36:09;101072.72;;;17.36;37.64
38616;BME280;24370;51.986;4.666;2024-03-23T03:38:35;101071.72;;;18.14;36.65
38616;BME280;24370;51.986;4.666;2024-03-23T03:41:01;101065.16;;;17.25;37.31
38616;BME280;24370;51.986;4.666;2024-03-23T03:43:27;101064.44;;;17.22;37.53
38616;BME280;24370;51.986;4.666;2024-03-23T03:45:53;101055.78;;;17.17;36.83
38616;BME280;24370;51.986;4.666;2024-03-23T03:48:19;101054.59;;;17.00;37.75
38616;BME280;24370;51.986;4.666;2024-03-23T03:50:47;101049.34;;;16.99;37.91
38616;BME280;24370;51.986;4.666;2024-03-23T03:53:12;101046.63;;;17.52;37.57
38616;BME280;24370;51.986;4.666;2024-03-23T03:55:38;101045.44;;;17.61;36.61
38616;BME280;24370;51.986;4.666;2024-03-23T03:58:03;101048.25;;;16.77;37.87
38616;BME280;24370;51.986;4.666;2024-03-23T04:00:30;101045.63;;;17.31;37.79
38616;BME280;24370;51.986;4.666;2024-03-23T04:02:55;101039.81;;;17.70;36.45
38616;BME280;24370;51.986;4.666;2024-03-23T04:05:21;101038.09;;;17.94;36.04
38616;BME280;24370;51.986;4.666;2024-03-23T04:07:47;101042.44;;;18.19;35.54
38616;BME280;24370;51.986;4.666;2024-03-23T04:10:12;101035.69;;;17.87;35.83
38616;BME280;24370;51.986;4.666;2024-03-23T04:12:38;101040.34;;;18.05;36.40
38616;BME280;24370;51.986;4.666;2024-03-23T04:15:03;101043.72;;;17.60;36.64
38616;BME280;24370;51.986;4.666;2024-03-23T04:17:30;101040.13;;;17.86;36.16
38616;BME280;24370;51.986;4.666;2024-03-23T04:19:58;101033.31;;;17.79;35.72
38616;BME280;24370;51.986;4.666;2024-03-23T04:22:23;101034.47;;;17.23;36.50
38616;BME280;24370;51.986;4.666;2024-03-23T04:24:56;101037.16;;;17.46;36.26
38616;BME280;24370;51.986;4.666;2024-03-23T04:27:22;101029.81;;;17.55;36.85
38616;BME280;24370;51.986;4.666;2024-03-23T04:29:52;101035.47;;;17.44;36.24
38616;BME280;24370;51.986;4.666;2024-03-23T04:32:18;101031.19;;;17.65;35.94
38616;BME280;24370;51.986;4.666;2024-03-23T04:34:44;101028.34;;;17.46;36.26
38616;BME280;24370;51.986;4.666;2024-03-23T04:37:10;101034.66;;;17.67;35.78
38616;BME280;24370;51.986;4.666;2024-03-23T04:39:36;101033.31;;;17.30;36.04
38616;BME280;24370;51.986;4.666;2024-03-23T04:42:02;101025.91;;;17.65;35.62
38616;BME280;24370;51.986;4.666;2024-03-23T04:44:28;101030.25;;;17.42;35.87
38616;BME280;24370;51.986;4.666;2024-03-23T04:46:53;101027.66;;;17.16;36.49
38616;BME280;24370;51.986;4.666;2024-03-23T04:49:19;101019.13;;;17.07;36.32
38616;BME280;24370;51.986;4.666;2024-03-23T04:51:45;101027.22;;;16.74;37.16
38616;BME280;24370;51.986;4.666;2024-03-23T04:54:12;101017.63;;;17.51;36.22
38616;BME280;24370;51.986;4.666;2024-03-23T04:56:37;101022.47;;;18.10;35.29
38616;BME280;24370;51.986;4.666;2024-03-23T04:59:03;101029.38;;;17.42;36.16
38616;BME280;24370;51.986;4.666;2024-03-23T05:01:32;101030.56;;;17.33;36.66
38616;BME280;24370;51.986;4.666;2024-03-23T05:03:58;101027.56;;;16.92;37.10
38616;BME280;24370;51.986;4.666;2024-03-23T05:06:24;101032.22;;;16.84;37.72
38616;BME280;24370;51.986;4.666;2024-03-23T05:08:53;101036.84;;;16.20;38.79
38616;BME280;24370;51.986;4.666;2024-03-23T05:11:19;101036.28;;;17.21;36.89
38616;BME280;24370;51.986;4.666;2024-03-23T05:13:46;101029.19;;;16.68;37.71
38616;BME280;24370;51.986;4.666;2024-03-23T05:16:11;101041.16;;;16.51;38.15
38616;BME280;24370;51.986;4.666;2024-03-23T05:18:36;101034.16;;;17.05;37.70
38616;BME280;24370;51.986;4.666;2024-03-23T05:21:02;101042.75;;;16.57;38.50
38616;BME280;24370;51.986;4.666;2024-03-23T05:23:30;101048.34;;;16.18;39.66
38616;BME280;24370;51.986;4.666;2024-03-23T05:25:56;101035.31;;;16.70;38.31
38616;BME280;24370;51.986;4.666;2024-03-23T05:28:22;101027.91;;;18.07;36.13
38616;BME280;24370;51.986;4.666;2024-03-23T05:30:54;101043.25;;;15.82;40.57
38616;BME280;24370;51.986;4.666;2024-03-23T05:33:20;101025.03;;;16.89;38.00
38616;BME280;24370;51.986;4.666;2024-03-23T05:35:46;101031.88;;;16.39;39.16
38616;BME280;24370;51.986;4.666;2024-03-23T05:38:13;101024.94;;;16.92;37.65
38616;BME280;24370;51.986;4.666;2024-03-23T05:40:39;101035.00;;;16.22;39.86
38616;BME280;24370;51.986;4.666;2024-03-23T05:43:06;101030.03;;;16.41;39.02
38616;BME280;24370;51.986;4.666;2024-03-23T05:45:32;101032.59;;;16.71;38.86
38616;BME280;24370;51.986;4.666;2024-03-23T05:47:57;101021.41;;;17.43;37.49
38616;BME280;24370;51.986;4.666;2024-03-23T05:50:23;101024.56;;;16.48;38.49
38616;BME280;24370;51.986;4.666;2024-03-23T05:52:49;101020.03;;;16.79;38.67
38616;BME280;24370;51.986;4.666;2024-03-23T05:55:15;101023.69;;;15.89;39.85
38616;BME280;24370;51.986;4.666;2024-03-23T05:57:40;101022.44;;;15.71;40.48
38616;BME280;24370;51.986;4.666;2024-03-23T06:00:06;101031.78;;;15.83;40.10
38616;BME280;24370;51.986;4.666;2024-03-23T06:02:35;101029.19;;;16.69;38.71
38616;BME280;24370;51.986;4.666;2024-03-23T06:05:01;101034.63;;;16.06;39.39
38616;BME280;24370;51.986;4.666;2024-03-23T06:07:27;101026.00;;;16.58;38.86
38616;BME280;24370;51.986;4.666;2024-03-23T06:09:52;101039.53;;;15.56;40.33
38616;BME280;24370;51.986;4.666;2024-03-23T06:12:18;101034.34;;;16.16;39.48
38616;BME280;24370;51.986;4.666;2024-03-23T06:14:43;101031.88;;;16.39;38.98
38616;BME280;24370;51.986;4.666;2024-03-23T06:17:09;101032.72;;;17.47;37.05
38616;BME280;24370;51.986;4.666;2024-03-23T06:19:34;101032.00;;;16.35;39.36
38616;BME280;24370;51.986;4.666;2024-03-23T06:21:59;101029.81;;;16.49;38.65
38616;BME280;24370;51.986;4.666;2024-03-23T06:24:25;101034.50;;;15.78;39.82
38616;BME280;24370;51.986;4.666;2024-03-23T06:26:50;101029.13;;;16.71;38.37
38616;BME280;24370;51.986;4.666;2024-03-23T06:29:16;101028.41;;;16.94;37.82
38616;BME280;24370;51.986;4.666;2024-03-23T06:31:41;101025.81;;;17.18;37.62
38616;BME280;24370;51.986;4.666;2024-03-23T06:34:06;101036.41;;;16.04;38.84
38616;BME280;24370;51.986;4.666;2024-03-23T06:36:32;101032.97;;;16.02;39.62
38616;BME280;24370;51.986;4.666;2024-03-23T06:38:58;101030.81;;;16.73;38.00
38616;BME280;24370;51.986;4.666;2024-03-23T06:41:24;101033.09;;;15.99;39.56
38616;BME280;24370;51.986;4.666;2024-03-23T06:43:49;101028.94;;;16.49;39.01
38616;BME280;24370;51.986;4.666;2024-03-23T06:46:14;101030.50;;;16.26;39.04
38616;BME280;24370;51.986;4.666;2024-03-23T06:48:40;101037.72;;;16.49;38.39
38616;BME280;24370;51.986;4.666;2024-03-23T06:51:05;101030.88;;;16.70;38.65
38616;BME280;24370;51.986;4.666;2024-03-23T06:53:31;101038.63;;;16.18;39.38
38616;BME280;24370;51.986;4.666;2024-03-23T06:55:57;101036.16;;;17.24;37.54
38616;BME280;24370;51.986;4.666;2024-03-23T06:58:24;101033.16;;;17.60;36.89
38616;BME280;24370;51.986;4.666;2024-03-23T07:00:50;101034.22;;;17.54;37.12
38616;BME280;24370;51.986;4.666;2024-03-23T07:03:16;101031.09;;;17.68;36.56
38616;BME280;24370;51.986;4.666;2024-03-23T07:05:42;101035.56;;;17.90;36.95
38616;BME280;24370;51.986;4.666;2024-03-23T07:08:08;101038.22;;;17.66;37.41
38616;BME280;24370;51.986;4.666;2024-03-23T07:10:33;101030.34;;;16.32;38.61
38616;BME280;24370;51.986;4.666;2024-03-23T07:12:59;101029.25;;;17.70;36.72
38616;BME280;24370;51.986;4.666;2024-03-23T07:15:25;101032.09;;;16.87;37.56
38616;BME280;24370;51.986;4.666;2024-03-23T07:17:50;101040.19;;;17.85;36.08
38616;BME280;24370;51.986;4.666;2024-03-23T07:20:16;101045.91;;;16.10;38.70
38616;BME280;24370;51.986;4.666;2024-03-23T07:22:41;101043.66;;;16.56;37.81
38616;BME280;24370;51.986;4.666;2024-03-23T07:25:07;101042.22;;;16.17;38.29
38616;BME280;24370;51.986;4.666;2024-03-23T07:27:32;101038.53;;;15.60;39.17
38616;BME280;24370;51.986;4.666;2024-03-23T07:29:59;101031.75;;;16.71;38.00
38616;BME280;24370;51.986;4.666;2024-03-23T07:32:26;101039.31;;;17.35;36.74
38616;BME280;24370;51.986;4.666;2024-03-23T07:34:52;101036.41;;;17.18;37.24
38616;BME280;24370;51.986;4.666;2024-03-23T07:37:17;101048.16;;;16.24;38.57
38616;BME280;24370;51.986;4.666;2024-03-23T07:39:42;101042.50;;;16.65;38.12
38616;BME280;24370;51.986;4.666;2024-03-23T07:42:08;101035.63;;;17.14;37.36
38616;BME280;24370;51.986;4.666;2024-03-23T07:44:33;101034.78;;;18.11;36.39
38616;BME280;24370;51.986;4.666;2024-03-23T07:47:03;101036.75;;;16.23;39.36
38616;BME280;24370;51.986;4.666;2024-03-23T07:49:28;101033.97;;;16.56;37.90
38616;BME280;24370;51.986;4.666;2024-03-23T07:51:54;101032.97;;;16.02;39.20
38616;BME280;24370;51.986;4.666;2024-03-23T07:54:20;101022.28;;;17.93;36.62
38616;BME280;24370;51.986;4.666;2024-03-23T07:56:45;101025.69;;;17.71;36.67
38616;BME280;24370;51.986;4.666;2024-03-23T07:59:11;101028.94;;;18.71;35.63
38616;BME280;24370;51.986;4.666;2024-03-23T08:01:36;101021.59;;;18.56;35.00
38616;BME280;24370;51.986;4.666;2024-03-23T08:04:02;101026.53;;;17.97;35.03
38616;BME280;24370;51.986;4.666;2024-03-23T08:06:27;101030.59;;;18.06;35.22
38616;BME280;24370;51.986;4.666;2024-03-23T08:08:55;101026.47;;;17.50;36.17
38616;BME280;24370;51.986;4.666;2024-03-23T08:11:31;101032.50;;;17.03;36.81
38616;BME280;24370;51.986;4.666;2024-03-23T08:13:57;101025.56;;;17.74;34.64
38616;BME280;24370;51.986;4.666;2024-03-23T08:16:23;101025.28;;;20.16;32.30
38616;BME280;24370;51.986;4.666;2024-03-23T08:18:51;101023.63;;;20.14;31.09
38616;BME280;24370;51.986;4.666;2024-03-23T08:21:16;101021.50;;;20.95;30.44
38616;BME280;24370;51.986;4.666;2024-03-23T08:23:42;101027.06;;;20.35;31.59
38616;BME280;24370;51.986;4.666;2024-03-23T08:26:09;101022.72;;;19.75;32.54
38616;BME280;24370;51.986;4.666;2024-03-23T08:28:34;101019.00;;;20.56;31.35
38616;BME280;24370;51.986;4.666;2024-03-23T08:31:02;101022.13;;;20.64;30.46
38616;BME280;24370;51.986;4.666;2024-03-23T08:33:28;101034.22;;;20.14;31.38
38616;BME280;24370;51.986;4.666;2024-03-23T08:36:06;101027.00;;;19.18;32.66
38616;BME280;24370;51.986;4.666;2024-03-23T08:38:33;101026.72;;;17.91;33.40
38616;BME280;24370;51.986;4.666;2024-03-23T08:41:02;101020.13;;;18.48;33.02
38616;BME280;24370;51.986;4.666;2024-03-23T08:43:28;101021.28;;;18.63;33.20
38616;BME280;24370;51.986;4.666;2024-03-23T08:46:03;101007.38;;;20.58;30.96
38616;BME280;24370;51.986;4.666;2024-03-23T08:48:28;101015.22;;;20.42;30.57
38616;BME280;24370;51.986;4.666;2024-03-23T08:51:20;101003.91;;;20.56;29.81
38616;BME280;24370;51.986;4.666;2024-03-23T08:53:45;101017.88;;;22.14;27.92
38616;BME280;24370;51.986;4.666;2024-03-23T08:56:11;101012.03;;;19.58;30.48
38616;BME280;24370;51.986;4.666;2024-03-23T08:58:37;101036.53;;;20.22;30.02
38616;BME280;24370;51.986;4.666;2024-03-23T09:01:11;101050.19;;;17.26;37.01
38616;BME280;24370;51.986;4.666;2024-03-23T09:03:40;101035.31;;;17.23;36.53
38616;BME280;24370;51.986;4.666;2024-03-23T09:06:10;101043.22;;;16.98;35.83
38616;BME280;24370;51.986;4.666;2024-03-23T09:08:35;101045.44;;;17.10;36.20
38616;BME280;24370;51.986;4.666;2024-03-23T09:11:08;101031.94;;;16.65;38.54
38616;BME280;24370;51.986;4.666;2024-03-23T09:13:34;101031.94;;;16.93;37.65
38616;BME280;24370;51.986;4.666;2024-03-23T09:16:00;101038.19;;;17.42;37.18
38616;BME280;24370;51.986;4.666;2024-03-23T09:18:26;101033.63;;;18.42;35.45
38616;BME280;24370;51.986;4.666;2024-03-23T09:20:52;101030.94;;;19.90;32.41
38616;BME280;24370;51.986;4.666;2024-03-23T09:23:22;101026.03;;;18.55;34.51
38616;BME280;24370;51.986;4.666;2024-03-23T09:25:47;101034.78;;;17.39;35.63
38616;BME280;24370;51.986;4.666;2024-03-23T09:28:13;101037.56;;;17.85;34.46
38616;BME280;24370;51.986;4.666;2024-03-23T09:30:38;101030.97;;;16.67;36.12
38616;BME280;24370;51.986;4.666;2024-03-23T09:33:13;101035.50;;;16.35;36.80
38616;BME280;24370;51.986;4.666;2024-03-23T09:35:42;101034.91;;;16.82;35.57
38616;BME280;24370;51.986;4.666;2024-03-23T09:38:08;101044.06;;;17.51;35.23
38616;BME280;24370;51.986;4.666;2024-03-23T09:40:41;101032.06;;;17.66;35.89
38616;BME280;24370;51.986;4.666;2024-03-23T09:43:09;101030.88;;;17.74;34.98
38616;BME280;24370;51.986;4.666;2024-03-23T09:45:39;101022.34;;;18.37;33.56
38616;BME280;24370;51.986;4.666;2024-03-23T09:48:08;101027.75;;;17.63;33.06
38616;BME280;24370;51.986;4.666;2024-03-23T09:50:37;101036.38;;;16.64;34.71
38616;BME280;24370;51.986;4.666;2024-03-23T09:53:03;101033.66;;;16.37;35.69
38616;BME280;24370;51.986;4.666;2024-03-23T09:55:29;101030.41;;;17.87;34.20
38616;BME280;24370;51.986;4.666;2024-03-23T09:57:55;101031.16;;;17.90;33.71
38616;BME280;24370;51.986;4.666;2024-03-23T10:00:20;101017.66;;;17.98;33.14
38616;BME280;24370;51.986;4.666;2024-03-23T10:02:46;101025.56;;;18.45;31.83
38616;BME280;24370;51.986;4.666;2024-03-23T10:05:22;101020.28;;;17.51;33.87
38616;BME280;24370;51.986;4.666;2024-03-23T10:07:51;101022.34;;;17.66;34.30
38616;BME280;24370;51.986;4.666;2024-03-23T10:10:17;101023.47;;;17.35;34.44
38616;BME280;24370;51.986;4.666;2024-03-23T10:12:49;101006.00;;;20.32;31.36
38616;BME280;24370;51.986;4.666;2024-03-23T10:15:25;101020.91;;;18.28;32.97
38616;BME280;24370;51.986;4.666;2024-03-23T10:17:51;101003.44;;;20.11;31.68
38616;BME280;24370;51.986;4.666;2024-03-23T10:20:22;101008.97;;;20.43;31.53
38616;BME280;24370;51.986;4.666;2024-03-23T10:22:50;101016.13;;;20.41;30.73
38616;BME280;24370;51.986;4.666;2024-03-23T10:25:22;101002.50;;;20.86;29.84
38616;BME280;24370;51.986;4.666;2024-03-23T10:28:00;101009.22;;;20.75;29.41
38616;BME280;24370;51.986;4.666;2024-03-23T10:30:26;101016.16;;;19.24;31.41
38616;BME280;24370;51.986;4.666;2024-03-23T10:33:12;101020.53;;;18.60;32.56
38616;BME280;24370;51.986;4.666;2024-03-23T10:35:38;101001.09;;;20.96;29.79
38616;BME280;24370;51.986;4.666;2024-03-23T10:38:07;101013.22;;;19.09;31.81
38616;BME280;24370;51.986;4.666;2024-03-23T10:40:36;101017.56;;;18.01;32.01
38616;BME280;24370;51.986;4.666;2024-03-23T10:43:06;101022.03;;;17.99;32.27
38616;BME280;24370;51.986;4.666;2024-03-23T10:45:33;101008.47;;;18.97;31.71
38616;BME280;24370;51.986;4.666;2024-03-23T10:47:59;101029.50;;;17.64;33.25
38616;BME280;24370;51.986;4.666;2024-03-23T10:50:25;101015.06;;;18.20;32.82
38616;BME280;24370;51.986;4.666;2024-03-23T10:52:52;101006.13;;;18.23;31.73
38616;BME280;24370;51.986;4.666;2024-03-23T10:55:22;101004.06;;;18.31;31.00
38616;BME280;24370;51.986;4.666;2024-03-23T10:57:54;100997.53;;;20.24;28.70
38616;BME280;24370;51.986;4.666;2024-03-23T11:00:21;101000.44;;;21.43;26.46
38616;BME280;24370;51.986;4.666;2024-03-23T11:02:48;100988.03;;;22.09;26.50
38616;BME280;24370;51.986;4.666;2024-03-23T11:07:52;100992.56;;;21.24;27.09
38616;BME280;24370;51.986;4.666;2024-03-23T11:10:29;100999.16;;;18.87;30.30
38616;BME280;24370;51.986;4.666;2024-03-23T11:13:21;100977.41;;;20.74;27.85
38616;BME280;24370;51.986;4.666;2024-03-23T11:15:47;100994.50;;;21.56;27.50
38616;BME280;24370;51.986;4.666;2024-03-23T11:18:20;100989.75;;;20.38;28.59
38616;BME280;24370;51.986;4.666;2024-03-23T11:20:46;100986.50;;;21.56;26.91
38616;BME280;24370;51.986;4.666;2024-03-23T11:23:27;100987.63;;;21.34;27.43
38616;BME280;24370;51.986;4.666;2024-03-23T11:25:53;100979.06;;;20.76;28.99
38616;BME280;24370;51.986;4.666;2024-03-23T11:28:18;100979.94;;;20.58;28.89
38616;BME280;24370;51.986;4.666;2024-03-23T11:30:44;100994.78;;;21.99;28.00
38616;BME280;24370;51.986;4.666;2024-03-23T11:33:09;100973.66;;;20.78;28.28
38616;BME280;24370;51.986;4.666;2024-03-23T11:35:41;100967.41;;;23.06;26.10
38616;BME280;24370;51.986;4.666;2024-03-23T11:38:14;100969.81;;;23.68;25.21
38616;BME280;24370;51.986;4.666;2024-03-23T11:43:11;100979.47;;;20.13;28.31
38616;BME280;24370;51.986;4.666;2024-03-23T11:45:39;100970.19;;;20.22;28.80
38616;BME280;24370;51.986;4.666;2024-03-23T11:48:06;100961.06;;;20.27;28.99
38616;BME280;24370;51.986;4.666;2024-03-23T11:50:32;100960.66;;;18.57;31.11
38616;BME280;24370;51.986;4.666;2024-03-23T11:53:17;100969.41;;;19.02;30.89
38616;BME280;24370;51.986;4.666;2024-03-23T11:58:12;100974.78;;;17.66;31.68
38616;BME280;24370;51.986;4.666;2024-03-23T12:00:38;100968.00;;;17.34;32.60
38616;BME280;24370;51.986;4.666;2024-03-23T12:03:04;100953.56;;;19.01;30.85
38616;BME280;24370;51.986;4.666;2024-03-23T12:05:30;100972.19;;;18.34;31.44
38616;BME280;24370;51.986;4.666;2024-03-23T12:08:35;100962.34;;;19.42;31.17
38616;BME280;24370;51.986;4.666;2024-03-23T12:11:12;100962.38;;;19.01;31.66
38616;BME280;24370;51.986;4.666;2024-03-23T12:13:39;100945.84;;;20.85;29.12
38616;BME280;24370;51.986;4.666;2024-03-23T12:16:18;100947.78;;;21.16;28.52
38616;BME280;24370;51.986;4.666;2024-03-23T12:18:48;100933.88;;;20.59;28.47
38616;BME280;24370;51.986;4.666;2024-03-23T12:21:17;100940.13;;;20.40;28.28
38616;BME280;24370;51.986;4.666;2024-03-23T12:23:43;100933.78;;;21.46;27.29
38616;BME280;24370;51.986;4.666;2024-03-23T12:26:13;100941.31;;;21.72;26.84
38616;BME280;24370;51.986;4.666;2024-03-23T12:28:39;100935.19;;;19.37;29.13
38616;BME280;24370;51.986;4.666;2024-03-23T12:31:05;100953.19;;;18.46;30.07
38616;BME280;24370;51.986;4.666;2024-03-23T12:33:31;100944.63;;;18.82;29.99
38616;BME280;24370;51.986;4.666;2024-03-23T12:35:56;100937.56;;;17.96;32.08
38616;BME280;24370;51.986;4.666;2024-03-23T12:38:22;100949.19;;;16.94;32.73
38616;BME280;24370;51.986;4.666;2024-03-23T12:40:48;100944.00;;;18.33;31.35
38616;BME280;24370;51.986;4.666;2024-03-23T12:43:14;100955.31;;;18.37;31.13
38616;BME280;24370;51.986;4.666;2024-03-23T12:45:40;100946.47;;;18.16;31.42
38616;BME280;24370;51.986;4.666;2024-03-23T12:48:06;100941.03;;;18.63;30.38
38616;BME280;24370;51.986;4.666;2024-03-23T12:50:31;100941.44;;;18.31;31.36
38616;BME280;24370;51.986;4.666;2024-03-23T12:52:57;100943.03;;;19.20;30.21
38616;BME280;24370;51.986;4.666;2024-03-23T12:55:23;100941.03;;;18.63;31.09
38616;BME280;24370;51.986;4.666;2024-03-23T12:57:48;100940.91;;;19.87;30.37
38616;BME280;24370;51.986;4.666;2024-03-23T13:00:14;100932.16;;;20.58;28.91
38616;BME280;24370;51.986;4.666;2024-03-23T13:02:42;100929.44;;;18.88;31.49
38616;BME280;24370;51.986;4.666;2024-03-23T13:05:07;100920.78;;;19.24;31.31
38616;BME280;24370;51.986;4.666;2024-03-23T13:07:35;100924.22;;;18.85;30.44
38616;BME280;24370;51.986;4.666;2024-03-23T13:10:03;100917.97;;;18.44;30.89
38616;BME280;24370;51.986;4.666;2024-03-23T13:12:29;100927.13;;;17.91;30.66
38616;BME280;24370;51.986;4.666;2024-03-23T13:14:54;100923.06;;;18.92;29.60
38616;BME280;24370;51.986;4.666;2024-03-23T13:17:22;100923.72;;;18.97;30.02
38616;BME280;24370;51.986;4.666;2024-03-23T13:19:48;100922.97;;;17.38;31.26
38616;BME280;24370;51.986;4.666;2024-03-23T13:22:13;100913.81;;;18.17;31.38
38616;BME280;24370;51.986;4.666;2024-03-23T13:24:38;100910.50;;;17.88;31.54
38616;BME280;24370;51.986;4.666;2024-03-23T13:27:04;100923.53;;;17.23;32.09
38616;BME280;24370;51.986;4.666;2024-03-23T13:29:33;100918.97;;;17.26;32.47
38616;BME280;24370;51.986;4.666;2024-03-23T13:32:00;100911.34;;;18.12;30.73
38616;BME280;24370;51.986;4.666;2024-03-23T13:34:25;100925.13;;;17.74;30.98
38616;BME280;24370;51.986;4.666;2024-03-23T13:36:50;100917.53;;;17.89;30.58
38616;BME280;24370;51.986;4.666;2024-03-23T13:39:16;100925.59;;;17.15;31.54
38616;BME280;24370;51.986;4.666;2024-03-23T13:41:43;100903.78;;;18.25;30.18
38616;BME280;24370;51.986;4.666;2024-03-23T13:44:13;100896.41;;;18.54;30.89
38616;BME280;24370;51.986;4.666;2024-03-23T13:46:40;100902.28;;;17.26;32.07
38616;BME280;24370;51.986;4.666;2024-03-23T13:49:18;100895.44;;;18.77;31.55
38616;BME280;24370;51.986;4.666;2024-03-23T13:51:48;100905.19;;;17.66;32.76